createdAt,value
2018-01-13T00:00:18.710Z,50.3
2018-01-13T00:02:19.456Z,64.5
2018-01-13T00:04:19.179Z,60.3
2018-01-13T00:06:19.248Z,67.1
2018-01-13T00:08:18.974Z,60.1
2018-01-13T00:10:19.164Z,60.8
2018-01-13T00:12:18.892Z,70.1
2018-01-13T00:14:19.610Z,60.1
2018-01-13T00:16:19.647Z,52.2
2018-01-13T00:18:19.491Z,70.3
2018-01-13T00:20:19.278Z,66.8
2018-01-13T00:22:19.057Z,58
2018-01-13T00:24:18.796Z,57.5
2018-01-13T00:26:18.836Z,54.4
2018-01-13T00:28:19.570Z,56.1
2018-01-13T00:30:19.343Z,62.3
2018-01-13T00:32:19.072Z,60.3
2018-01-13T00:34:18.792Z,52.8
2018-01-13T00:36:19.307Z,59.1
2018-01-13T00:38:19.054Z,53.3
2018-01-13T00:40:19.252Z,55.2
2018-01-13T00:42:18.996Z,66.3
2018-01-13T00:44:18.732Z,53.2
2018-01-13T00:46:19.202Z,52.4
2018-01-13T00:48:18.942Z,53.7
2018-01-13T00:50:18.816Z,49.6
2018-01-13T00:52:19.565Z,64.9
2018-01-13T00:54:19.306Z,56.7
2018-01-13T00:56:18.779Z,59.4
2018-01-13T00:58:19.495Z,63.3
2018-01-13T01:00:19.264Z,61.8
2018-01-13T01:02:18.856Z,48.8
2018-01-13T01:04:19.597Z,50.8
2018-01-13T01:06:19.114Z,66.5
2018-01-13T01:08:18.856Z,56.3
2018-01-13T01:10:19.071Z,44.6
2018-01-13T01:12:18.819Z,51.9
2018-01-13T01:14:19.563Z,51.7
2018-01-13T01:16:19.069Z,58.5
2018-01-13T01:18:18.902Z,50
2018-01-13T01:20:19.706Z,62.5
2018-01-13T01:22:19.440Z,59.9
2018-01-13T01:24:19.182Z,49.7
2018-01-13T01:26:18.739Z,50.1
2018-01-13T01:28:19.469Z,47.3
2018-01-13T01:30:19.226Z,45.6
2018-01-13T01:32:18.971Z,48.9
2018-01-13T01:34:18.706Z,53.1
2018-01-13T01:36:19.050Z,44.9
2018-01-13T01:38:18.771Z,47.3
2018-01-13T01:40:18.979Z,54.8
2018-01-13T01:42:18.759Z,43.4
2018-01-13T01:44:19.474Z,56.4
2018-01-13T01:46:19.538Z,54.8
2018-01-13T01:48:19.291Z,50.2
2018-01-13T01:50:19.031Z,55.3
2018-01-13T01:52:18.780Z,52.5
2018-01-13T01:54:19.526Z,52
2018-01-13T01:56:19.177Z,52.8
2018-01-13T01:58:18.929Z,51.3
2018-01-13T02:00:18.718Z,48.8
2018-01-13T02:02:19.442Z,63.5
2018-01-13T02:04:19.143Z,43.7
2018-01-13T02:06:19.194Z,50.9
2018-01-13T02:08:18.906Z,50.4
2018-01-13T02:10:19.121Z,52.9
2018-01-13T02:12:18.849Z,53.1
2018-01-13T02:14:19.601Z,53.2
2018-01-13T02:16:19.113Z,45
2018-01-13T02:18:18.917Z,55.3
2018-01-13T02:20:19.662Z,48.8
2018-01-13T02:22:19.377Z,50.1
2018-01-13T02:24:19.130Z,47.4
2018-01-13T02:26:19.222Z,49.1
2018-01-13T02:28:18.939Z,49.1
2018-01-13T02:30:18.686Z,45.3
2018-01-13T02:32:19.418Z,58.6
2018-01-13T02:34:19.135Z,47
2018-01-13T02:36:18.890Z,57.4
2018-01-13T02:38:19.629Z,38.6
2018-01-13T02:40:18.842Z,52.9
2018-01-13T02:42:19.576Z,53.5
2018-01-13T02:44:19.319Z,56.3
2018-01-13T02:46:19.579Z,50.3
2018-01-13T02:48:19.313Z,50.9
2018-01-13T02:50:19.070Z,50.1
2018-01-13T02:52:18.788Z,51.5
2018-01-13T02:54:19.540Z,46.2
2018-01-13T02:56:19.583Z,47.3
2018-01-13T02:58:19.331Z,48.7
2018-01-13T03:00:19.224Z,49.5
2018-01-13T03:02:18.952Z,46.7
2018-01-13T03:04:18.686Z,47.4
2018-01-13T03:06:18.799Z,54.5
2018-01-13T03:08:19.540Z,49.1
2018-01-13T03:10:18.745Z,46.9
2018-01-13T03:12:19.492Z,51.2
2018-01-13T03:14:19.256Z,44.2
2018-01-13T03:16:18.798Z,52.2
2018-01-13T03:18:19.598Z,47.2
2018-01-13T03:20:19.370Z,50.9
2018-01-13T03:22:19.359Z,55.2
2018-01-13T03:24:19.102Z,62.1
2018-01-13T03:26:18.882Z,47.6
2018-01-13T03:28:19.604Z,45.4
2018-01-13T03:30:19.396Z,55.5
2018-01-13T03:32:19.134Z,49.2
2018-01-13T03:34:18.878Z,67.2
2018-01-13T03:36:19.440Z,51
2018-01-13T03:38:19.196Z,56
2018-01-13T03:40:19.410Z,52
2018-01-13T03:42:19.111Z,54.1
2018-01-13T03:44:18.851Z,60.4
2018-01-13T03:46:19.430Z,62.9
2018-01-13T03:48:19.184Z,49.5
2018-01-13T03:50:18.937Z,53.1
2018-01-13T03:52:18.677Z,51.8
2018-01-13T03:54:19.401Z,56.3
2018-01-13T03:56:18.912Z,53.9
2018-01-13T03:58:19.625Z,62.1
2018-01-13T04:00:19.375Z,51.8
2018-01-13T04:02:19.145Z,55.6
2018-01-13T04:04:18.894Z,58.6
2018-01-13T04:06:19.132Z,58.2
2018-01-13T04:08:18.857Z,62.2
2018-01-13T04:10:19.089Z,56.5
2018-01-13T04:12:18.843Z,64.2
2018-01-13T04:14:19.583Z,49.2
2018-01-13T04:16:19.151Z,70.3
2018-01-13T04:18:18.991Z,57.5
2018-01-13T04:20:18.758Z,55
2018-01-13T04:22:19.362Z,67.7
2018-01-13T04:24:19.088Z,65.7
2018-01-13T04:26:19.559Z,64.2
2018-01-13T04:28:19.293Z,55.9
2018-01-13T04:30:19.094Z,64.9
2018-01-13T04:32:18.825Z,52.2
2018-01-13T04:34:19.568Z,76.4
2018-01-13T04:36:19.176Z,59.8
2018-01-13T04:38:18.928Z,61.5
2018-01-13T04:40:19.091Z,60.8
2018-01-13T04:42:18.809Z,58.5
2018-01-13T04:44:19.560Z,66.6
2018-01-13T04:46:18.909Z,69
2018-01-13T04:48:19.646Z,72.1
2018-01-13T04:50:19.489Z,64.1
2018-01-13T04:52:18.927Z,61.5
2018-01-13T04:54:18.659Z,60.7
2018-01-13T04:56:18.761Z,56.9
2018-01-13T04:58:19.522Z,60.6
2018-01-13T05:00:19.301Z,57.8
2018-01-13T05:02:18.874Z,52.7
2018-01-13T05:04:19.639Z,58
2018-01-13T05:06:19.192Z,62.2
2018-01-13T05:08:18.925Z,60.6
2018-01-13T05:10:19.124Z,52.1
2018-01-13T05:12:18.876Z,65.5
2018-01-13T05:14:19.623Z,60.4
2018-01-13T05:16:18.995Z,65
2018-01-13T05:18:18.823Z,54.2
2018-01-13T05:20:19.579Z,60.9
2018-01-13T05:22:19.171Z,52.6
2018-01-13T05:24:18.921Z,56.6
2018-01-13T05:26:19.282Z,56.6
2018-01-13T05:28:19.022Z,59.4
2018-01-13T05:30:18.779Z,71.3
2018-01-13T05:32:19.392Z,53.6
2018-01-13T05:34:19.125Z,48.3
2018-01-13T05:36:19.130Z,53.6
2018-01-13T05:38:18.886Z,54
2018-01-13T05:40:19.069Z,49.6
2018-01-13T05:42:18.807Z,51.3
2018-01-13T05:44:19.576Z,59.2
2018-01-13T05:46:19.195Z,55
2018-01-13T05:48:18.924Z,52.9
2018-01-13T05:50:19.667Z,52.7
2018-01-13T05:52:19.408Z,50.1
2018-01-13T05:54:19.124Z,45.1
2018-01-13T05:56:19.636Z,51
2018-01-13T05:58:19.353Z,51.9
2018-01-13T06:00:19.136Z,45.6
2018-01-13T06:02:18.725Z,48.9
2018-01-13T06:04:19.441Z,52.3
2018-01-13T06:06:19.609Z,41.7
2018-01-13T06:08:19.355Z,54
2018-01-13T06:10:19.655Z,51.8
2018-01-13T06:12:19.376Z,50.6
2018-01-13T06:14:19.117Z,44.6
2018-01-13T06:16:19.479Z,45.6
2018-01-13T06:18:19.312Z,42.7
2018-01-13T06:20:19.071Z,40.2
2018-01-13T06:22:18.709Z,49.8
2018-01-13T06:24:19.459Z,48.7
2018-01-13T06:26:18.799Z,39.3
2018-01-13T06:28:19.547Z,44.9
2018-01-13T06:30:19.436Z,47.7
2018-01-13T06:32:18.961Z,46.2
2018-01-13T06:34:18.701Z,38.6
2018-01-13T06:36:19.257Z,41.5
2018-01-13T06:38:19.013Z,45.9
2018-01-13T06:40:19.230Z,35.4
2018-01-13T06:42:18.970Z,45.4
2018-01-13T06:44:18.710Z,35.7
2018-01-13T06:46:19.472Z,43.7
2018-01-13T06:48:19.249Z,42
2018-01-13T06:50:19.065Z,38.7
2018-01-13T06:52:18.818Z,42.2
2018-01-13T06:54:19.556Z,36.5
2018-01-13T06:56:19.210Z,34.5
2018-01-13T06:58:18.979Z,38.4
2018-01-13T07:00:18.741Z,29.2
2018-01-13T07:02:19.427Z,30.9
2018-01-13T07:04:19.201Z,33.1
2018-01-13T07:06:19.235Z,38.1
2018-01-13T07:08:18.955Z,31.8
2018-01-13T07:10:19.169Z,29.3
2018-01-13T07:12:18.935Z,39.3
2018-01-13T07:14:18.668Z,30.1
2018-01-13T07:16:19.210Z,33
2018-01-13T07:18:19.052Z,43.4
2018-01-13T07:20:18.818Z,30.5
2018-01-13T07:22:19.579Z,29.4
2018-01-13T07:24:19.339Z,32.9
2018-01-13T07:26:18.726Z,28
2018-01-13T07:28:19.450Z,24.1
2018-01-13T07:30:19.268Z,27.2
2018-01-13T07:32:19.042Z,32.5
2018-01-13T07:34:18.753Z,27.4
2018-01-13T07:36:19.318Z,27.4
2018-01-13T07:38:19.060Z,25.5
2018-01-13T07:40:19.414Z,25.8
2018-01-13T07:42:18.884Z,24.2
2018-01-13T07:44:19.611Z,30.5
2018-01-13T07:46:18.697Z,31.8
2018-01-13T07:48:19.446Z,32.8
2018-01-13T07:50:19.183Z,25.5
2018-01-13T07:52:18.955Z,23.8
2018-01-13T07:54:18.693Z,26.7
2018-01-13T07:56:19.298Z,30.7
2018-01-13T07:58:19.017Z,28.1
2018-01-13T08:00:18.754Z,26.1
2018-01-13T08:02:19.496Z,27.9
2018-01-13T08:04:19.235Z,24.6
2018-01-13T08:06:19.286Z,21.4
2018-01-13T08:08:19.040Z,25.2
2018-01-13T08:10:19.239Z,25
2018-01-13T08:12:19.483Z,22.8
2018-01-13T08:14:19.230Z,15
2018-01-13T08:16:19.287Z,16.9
2018-01-13T08:18:19.084Z,21.2
2018-01-13T08:20:18.813Z,17.4
2018-01-13T08:22:19.555Z,25
2018-01-13T08:24:19.287Z,20.7
2018-01-13T08:26:19.657Z,20.6
2018-01-13T08:28:19.395Z,15.8
2018-01-13T08:30:19.190Z,19.7
2018-01-13T08:32:18.670Z,17.9
2018-01-13T08:34:19.428Z,15.9
2018-01-13T08:36:19.166Z,17.6
2018-01-13T08:38:18.929Z,16.9
2018-01-13T08:40:19.170Z,13
2018-01-13T08:42:18.916Z,13.2
2018-01-13T08:44:19.656Z,14.7
2018-01-13T08:46:19.321Z,14.7
2018-01-13T08:48:19.080Z,14.5
2018-01-13T08:50:18.827Z,17.8
2018-01-13T08:52:19.502Z,19.5
2018-01-13T08:54:19.231Z,16.9
2018-01-13T08:56:18.821Z,19.2
2018-01-13T08:58:19.558Z,21
2018-01-13T09:00:19.340Z,15.9
2018-01-13T09:02:19.071Z,22.8
2018-01-13T09:04:18.857Z,16.9
2018-01-13T09:06:18.916Z,19.4
2018-01-13T09:08:19.652Z,19.8
2018-01-13T09:10:18.906Z,18.8
2018-01-13T09:12:19.399Z,15.8
2018-01-13T09:14:19.146Z,19.2
2018-01-13T09:16:18.858Z,21.7
2018-01-13T09:18:18.676Z,19
2018-01-13T09:20:19.442Z,17.5
2018-01-13T09:22:19.168Z,14.5
2018-01-13T09:24:18.911Z,20.7
2018-01-13T09:26:19.300Z,13.7
2018-01-13T09:28:19.012Z,20.5
2018-01-13T09:30:18.732Z,19.1
2018-01-13T09:32:19.388Z,16.4
2018-01-13T09:34:19.131Z,15.2
2018-01-13T09:36:18.678Z,14.5
2018-01-13T09:38:19.412Z,12.2
2018-01-13T09:40:19.605Z,15
2018-01-13T09:42:19.378Z,15
2018-01-13T09:44:19.141Z,13.9
2018-01-13T09:46:18.723Z,16.6
2018-01-13T09:48:19.461Z,16.7
2018-01-13T09:50:19.220Z,17.9
2018-01-13T09:52:18.997Z,16.5
2018-01-13T09:54:18.838Z,9
2018-01-13T09:56:19.501Z,13
2018-01-13T09:58:19.241Z,21.8
2018-01-13T10:00:18.983Z,16.1
2018-01-13T10:02:18.786Z,9
2018-01-13T10:04:19.521Z,12
2018-01-13T10:06:19.038Z,14.9
2018-01-13T10:08:18.773Z,15.3
2018-01-13T10:10:18.981Z,8.9
2018-01-13T10:12:18.721Z,11
2018-01-13T10:14:19.467Z,8.5
2018-01-13T10:16:19.257Z,11.5
2018-01-13T10:18:19.078Z,15.3
2018-01-13T10:20:18.855Z,14.8
2018-01-13T10:22:19.588Z,10.5
2018-01-13T10:24:19.299Z,14.9
2018-01-13T10:26:18.844Z,13.6
2018-01-13T10:28:19.699Z,15.4
2018-01-13T10:30:19.498Z,11.9
2018-01-13T10:32:19.133Z,10.1
2018-01-13T10:34:18.867Z,15.1
2018-01-13T10:36:19.408Z,13.8
2018-01-13T10:38:19.125Z,12.2
2018-01-13T10:40:19.366Z,9.1
2018-01-13T10:42:19.142Z,11.4
2018-01-13T10:44:18.863Z,11.9
2018-01-13T10:46:18.901Z,13
2018-01-13T10:48:19.633Z,10.4
2018-01-13T10:50:19.361Z,12.7
2018-01-13T10:52:19.110Z,9.4
2018-01-13T10:54:18.942Z,13.7
2018-01-13T10:56:19.064Z,16.2
2018-01-13T10:58:18.795Z,16.5
2018-01-13T11:00:19.590Z,11.4
2018-01-13T11:02:19.360Z,11
2018-01-13T11:04:19.107Z,10.8
2018-01-13T11:06:19.058Z,13.1
2018-01-13T11:08:18.769Z,11.5
2018-01-13T11:10:19.003Z,10
2018-01-13T11:12:18.764Z,10.3
2018-01-13T11:14:19.508Z,12.6
2018-01-13T11:16:19.657Z,10.1
2018-01-13T11:18:19.486Z,9.6
2018-01-13T11:20:19.244Z,9.6
2018-01-13T11:22:18.861Z,10.1
2018-01-13T11:24:19.612Z,11.4
2018-01-13T11:26:19.608Z,9.4
2018-01-13T11:28:19.326Z,14
2018-01-13T11:30:19.066Z,9.5
2018-01-13T11:32:18.787Z,11.1
2018-01-13T11:34:19.520Z,10.2
2018-01-13T11:36:19.089Z,12.4
2018-01-13T11:38:18.797Z,10.6
2018-01-13T11:40:19.010Z,10.6
2018-01-13T11:42:18.738Z,6.1
2018-01-13T11:44:19.471Z,8.4
2018-01-13T11:46:19.232Z,7.3
2018-01-13T11:48:18.996Z,10.4
2018-01-13T11:50:18.741Z,9.8
2018-01-13T11:52:19.505Z,8.6
2018-01-13T11:54:19.242Z,19.1
2018-01-13T11:56:18.730Z,14.7
2018-01-13T11:58:19.484Z,13.9
2018-01-13T12:00:19.228Z,14.3
2018-01-13T12:02:19.293Z,12.5
2018-01-13T12:04:19.031Z,15.9
2018-01-13T12:06:18.784Z,15.8
2018-01-13T12:08:19.530Z,11.6
2018-01-13T12:10:18.778Z,14.9
2018-01-13T12:12:19.531Z,15.3
2018-01-13T12:14:19.256Z,9.9
2018-01-13T12:16:19.407Z,11.4
2018-01-13T12:18:19.199Z,8.8
2018-01-13T12:20:18.948Z,12.6
2018-01-13T12:22:18.678Z,11.6
2018-01-13T12:24:19.416Z,15.5
2018-01-13T12:26:19.115Z,9.5
2018-01-13T12:28:18.867Z,9.5
2018-01-13T12:30:19.620Z,13.2
2018-01-13T12:32:19.318Z,10.7
2018-01-13T12:34:19.057Z,8.7
2018-01-13T12:36:18.866Z,9
2018-01-13T12:38:19.582Z,12
2018-01-13T12:40:18.797Z,13.6
2018-01-13T12:42:19.559Z,9.7
2018-01-13T12:44:19.304Z,14.2
2018-01-13T12:46:19.072Z,11
2018-01-13T12:48:18.816Z,11.7
2018-01-13T12:50:19.570Z,11.3
2018-01-13T12:52:19.282Z,10.3
2018-01-13T12:54:19.023Z,9.5
2018-01-13T12:56:19.188Z,13.2
2018-01-13T12:58:18.937Z,9.4
2018-01-13T13:00:18.825Z,7.7
2018-01-13T13:02:19.567Z,12.2
2018-01-13T13:04:19.299Z,11
2018-01-13T13:06:19.499Z,7.7
2018-01-13T13:08:19.231Z,9.8
2018-01-13T13:10:19.444Z,10.3
2018-01-13T13:12:19.033Z,11.5
2018-01-13T13:14:18.761Z,8.3
2018-01-13T13:16:19.323Z,10.1
2018-01-13T13:18:19.145Z,13.9
2018-01-13T13:20:18.909Z,8.6
2018-01-13T13:22:19.644Z,12.2
2018-01-13T13:24:19.372Z,8.1
2018-01-13T13:26:19.106Z,12.2
2018-01-13T13:28:18.826Z,10.3
2018-01-13T13:30:19.582Z,10.5
2018-01-13T13:32:19.293Z,8.2
2018-01-13T13:34:19.021Z,11
2018-01-13T13:36:19.037Z,12.2
2018-01-13T13:38:18.789Z,10.7
2018-01-13T13:40:18.997Z,9.5
2018-01-13T13:42:18.755Z,9.2
2018-01-13T13:44:19.505Z,8.5
2018-01-13T13:46:18.983Z,7.4
2018-01-13T13:48:18.724Z,9.1
2018-01-13T13:50:19.493Z,7.9
2018-01-13T13:52:19.219Z,9.3
2018-01-13T13:54:18.948Z,6.4
2018-01-13T13:56:19.438Z,5.3
2018-01-13T13:58:19.216Z,6
2018-01-13T14:00:18.960Z,7.3
2018-01-13T14:02:18.702Z,10
2018-01-13T14:04:19.453Z,11
2018-01-13T14:06:19.121Z,6.3
2018-01-13T14:08:18.871Z,8.6
2018-01-13T14:10:19.119Z,8.3
2018-01-13T14:12:19.101Z,4.6
2018-01-13T14:14:18.863Z,8.9
2018-01-13T14:16:19.053Z,11.6
2018-01-13T14:18:18.880Z,10.9
2018-01-13T14:20:19.622Z,7.6
2018-01-13T14:22:19.408Z,6.8
2018-01-13T14:24:19.137Z,7.5
2018-01-13T14:26:19.451Z,6.6
2018-01-13T14:28:19.191Z,8.1
2018-01-13T14:30:18.968Z,8.6
2018-01-13T14:32:19.595Z,8.5
2018-01-13T14:34:19.354Z,5.3
2018-01-13T14:36:18.906Z,5.4
2018-01-13T14:38:19.640Z,4.6
2018-01-13T14:40:18.828Z,6.2
2018-01-13T14:42:19.603Z,7.5
2018-01-13T14:44:19.350Z,11.2
2018-01-13T14:46:18.737Z,10.6
2018-01-13T14:48:19.503Z,4.7
2018-01-13T14:50:19.277Z,3.9
2018-01-13T14:52:18.893Z,6
2018-01-13T14:54:19.624Z,7.1
2018-01-13T14:56:19.001Z,4.2
2018-01-13T14:58:18.725Z,6.1
2018-01-13T15:00:19.488Z,7.9
2018-01-13T15:02:19.249Z,10
2018-01-13T15:04:19.009Z,6.9
2018-01-13T15:06:19.325Z,6.8
2018-01-13T15:08:19.070Z,4.9
2018-01-13T15:10:19.404Z,4.5
2018-01-13T15:12:18.866Z,7.7
2018-01-13T15:14:19.627Z,6.4
2018-01-13T15:16:19.631Z,3.9
2018-01-13T15:18:19.467Z,3.9
2018-01-13T15:20:19.270Z,6.1
2018-01-13T15:22:18.830Z,3.6
2018-01-13T15:24:19.564Z,6.1
2018-01-13T15:26:19.632Z,3.6
2018-01-13T15:28:19.374Z,3.6
2018-01-13T15:30:19.122Z,6.2
2018-01-13T15:32:18.853Z,5.5
2018-01-13T15:34:19.598Z,6
2018-01-13T15:36:19.236Z,5.6
2018-01-13T15:38:18.994Z,4.5
2018-01-13T15:40:19.182Z,4.8
2018-01-13T15:42:18.810Z,2.7
2018-01-13T15:44:19.540Z,3.4
2018-01-13T15:46:19.080Z,2.5
2018-01-13T15:48:18.829Z,4.2
2018-01-13T15:50:19.688Z,3
2018-01-13T15:52:19.410Z,3.2
2018-01-13T15:54:19.181Z,4.8
2018-01-13T15:56:19.225Z,4.8
2018-01-13T15:58:18.979Z,3.5
2018-01-13T16:00:18.851Z,3.4
2018-01-13T16:02:19.607Z,3.1
2018-01-13T16:04:19.366Z,3.5
2018-01-13T16:06:18.967Z,7.7
2018-01-13T16:08:18.698Z,4.1
2018-01-13T16:10:18.937Z,4.4
2018-01-13T16:12:19.539Z,9.1
2018-01-13T16:14:19.284Z,7.4
2018-01-13T16:16:19.548Z,9.2
2018-01-13T16:18:19.391Z,5.6
2018-01-13T16:20:19.247Z,5.1
2018-01-13T16:22:19.026Z,4.8
2018-01-13T16:24:18.780Z,4.3
2018-01-13T16:26:19.323Z,3
2018-01-13T16:28:19.050Z,5.2
2018-01-13T16:30:18.808Z,4.1
2018-01-13T16:32:19.384Z,4.7
2018-01-13T16:34:19.128Z,6.9
2018-01-13T16:36:18.662Z,9.6
2018-01-13T16:38:19.403Z,6.9
2018-01-13T16:40:19.602Z,7.7
2018-01-13T16:42:19.331Z,6.9
2018-01-13T16:44:19.077Z,4.9
2018-01-13T16:46:19.288Z,8.8
2018-01-13T16:48:19.081Z,7.7
2018-01-13T16:50:18.834Z,6.7
2018-01-13T16:52:18.975Z,9
2018-01-13T16:54:18.692Z,10
2018-01-13T16:56:19.046Z,9.3
2018-01-13T16:58:18.802Z,7.6
2018-01-13T17:00:19.551Z,20.7
2018-01-13T17:02:19.269Z,7.5
2018-01-13T17:04:18.996Z,5.9
2018-01-13T17:06:19.221Z,8.2
2018-01-13T17:08:18.956Z,9.5
2018-01-13T17:10:19.197Z,7.2
2018-01-13T17:12:18.757Z,7.3
2018-01-13T17:14:19.500Z,7.4
2018-01-13T17:16:18.840Z,6.8
2018-01-13T17:18:19.688Z,7.2
2018-01-13T17:20:19.453Z,11.9
2018-01-13T17:22:19.211Z,5.9
2018-01-13T17:24:18.935Z,6.8
2018-01-13T17:26:19.078Z,6.1
2018-01-13T17:28:18.843Z,5.7
2018-01-13T17:30:19.586Z,6.6
2018-01-13T17:32:19.338Z,5.9
2018-01-13T17:34:19.082Z,5.9
2018-01-13T17:36:19.451Z,4.9
2018-01-13T17:38:19.263Z,7.4
2018-01-13T17:40:19.505Z,7
2018-01-13T17:42:19.078Z,4.3
2018-01-13T17:44:18.825Z,9.5
2018-01-13T17:46:19.239Z,8
2018-01-13T17:48:19.021Z,8.2
2018-01-13T17:50:18.798Z,11.6
2018-01-13T17:52:18.866Z,8.1
2018-01-13T17:54:19.592Z,7
2018-01-13T17:56:19.599Z,9.7
2018-01-13T17:58:19.328Z,6.1
2018-01-13T18:00:19.083Z,4.8
2018-01-13T18:02:18.667Z,8.3
2018-01-13T18:04:19.388Z,9.4
2018-01-13T18:06:19.470Z,5.4
2018-01-13T18:08:19.199Z,15.1
2018-01-13T18:10:19.389Z,9.1
2018-01-13T18:12:19.155Z,7.8
2018-01-13T18:14:18.889Z,7
2018-01-13T18:16:19.257Z,9.2
2018-01-13T18:18:19.077Z,6.5
2018-01-13T18:20:18.901Z,6.2
2018-01-13T18:22:19.685Z,15
2018-01-13T18:24:19.433Z,9.2
2018-01-13T18:26:19.472Z,10.4
2018-01-13T18:28:19.182Z,8.8
2018-01-13T18:30:18.923Z,9.5
2018-01-13T18:32:19.660Z,15.8
2018-01-13T18:34:19.409Z,5.7
2018-01-13T18:36:18.771Z,13.8
2018-01-13T18:38:19.529Z,10.8
2018-01-13T18:40:18.761Z,15.6
2018-01-13T18:42:19.533Z,7.4
2018-01-13T18:44:19.287Z,8.9
2018-01-13T18:46:18.758Z,9.8
2018-01-13T18:48:19.492Z,5.5
2018-01-13T18:50:19.223Z,6.5
2018-01-13T18:52:18.825Z,12.2
2018-01-13T18:54:19.555Z,8.2
2018-01-13T18:56:18.923Z,11.8
2018-01-13T18:58:19.695Z,9.1
2018-01-13T19:00:19.433Z,8
2018-01-13T19:02:19.199Z,6.3
2018-01-13T19:04:18.939Z,7.9
2018-01-13T19:06:19.614Z,10
2018-01-13T19:08:19.372Z,9.1
2018-01-13T19:10:19.572Z,6.1
2018-01-13T19:12:19.236Z,8.7
2018-01-13T19:14:18.986Z,12.4
2018-01-13T19:16:19.205Z,6.9
2018-01-13T19:18:19.045Z,6.8
2018-01-13T19:20:18.815Z,8.1
2018-01-13T19:22:19.586Z,7.6
2018-01-13T19:24:19.334Z,7.8
2018-01-13T19:26:18.948Z,8.1
2018-01-13T19:28:18.684Z,14.3
2018-01-13T19:30:19.437Z,5.8
2018-01-13T19:32:19.162Z,8.2
2018-01-13T19:34:18.890Z,8.2
2018-01-13T19:36:19.385Z,7.9
2018-01-13T19:38:19.160Z,9.5
2018-01-13T19:40:19.391Z,7.4
2018-01-13T19:42:19.142Z,4.5
2018-01-13T19:44:18.892Z,11.5
2018-01-13T19:46:18.998Z,7.6
2018-01-13T19:48:18.740Z,10.7
2018-01-13T19:50:19.604Z,5.3
2018-01-13T19:52:19.368Z,8.7
2018-01-13T19:54:19.101Z,10.6
2018-01-13T19:56:18.696Z,6.4
2018-01-13T19:58:19.465Z,15
2018-01-13T20:00:19.221Z,7.6
2018-01-13T20:02:18.841Z,6.6
2018-01-13T20:04:19.562Z,10.9
2018-01-13T20:06:19.644Z,7.3
2018-01-13T20:08:19.370Z,6.6
2018-01-13T20:10:19.671Z,6.7
2018-01-13T20:12:19.412Z,11
2018-01-13T20:14:19.147Z,5.6
2018-01-13T20:16:19.652Z,5.6
2018-01-13T20:18:19.466Z,5.8
2018-01-13T20:20:19.220Z,11.8
2018-01-13T20:22:18.842Z,12.3
2018-01-13T20:24:19.586Z,13.3
2018-01-13T20:26:18.796Z,12.9
2018-01-13T20:28:19.543Z,8.3
2018-01-13T20:30:19.256Z,5.8
2018-01-13T20:32:19.402Z,10.6
2018-01-13T20:34:19.123Z,10.2
2018-01-13T20:36:19.616Z,8.9
2018-01-13T20:38:19.365Z,9.5
2018-01-13T20:40:19.576Z,6.1
2018-01-13T20:42:19.322Z,10.6
2018-01-13T20:44:19.055Z,6.7
2018-01-13T20:46:19.100Z,6.4
2018-01-13T20:48:18.838Z,15.2
2018-01-13T20:50:19.635Z,8.6
2018-01-13T20:52:19.467Z,9.7
2018-01-13T20:54:19.223Z,10.6
2018-01-13T20:56:19.509Z,7.4
2018-01-13T20:58:19.268Z,6.4
2018-01-13T21:00:19.009Z,7.5
2018-01-13T21:02:18.760Z,6.2
2018-01-13T21:04:19.554Z,8.3
2018-01-13T21:06:19.141Z,9.7
2018-01-13T21:08:18.885Z,7.6
2018-01-13T21:10:19.108Z,12
2018-01-13T21:12:18.688Z,10.5
2018-01-13T21:14:19.439Z,10.4
2018-01-13T21:16:19.505Z,10.7
2018-01-13T21:18:19.361Z,9.9
2018-01-13T21:20:19.148Z,11.1
2018-01-13T21:22:18.885Z,11
2018-01-13T21:24:19.622Z,9.6
2018-01-13T21:26:19.342Z,9.8
2018-01-13T21:28:19.097Z,7.8
2018-01-13T21:30:18.890Z,9.6
2018-01-13T21:32:19.653Z,10.8
2018-01-13T21:34:19.396Z,10.8
2018-01-13T21:36:19.542Z,12.2
2018-01-13T21:38:19.300Z,9.6
2018-01-13T21:40:19.500Z,16.2
2018-01-13T21:42:19.236Z,12.1
2018-01-13T21:44:19.008Z,14.8
2018-01-13T21:46:19.565Z,9.2
2018-01-13T21:48:19.286Z,10.3
2018-01-13T21:50:19.046Z,13.4
2018-01-13T21:52:18.804Z,11.8
2018-01-13T21:54:19.550Z,14.8
2018-01-13T21:56:18.696Z,10.8
2018-01-13T21:58:19.410Z,12.6
2018-01-13T22:00:19.143Z,12.9
2018-01-13T22:02:18.886Z,14.2
2018-01-13T22:04:19.620Z,10.2
2018-01-13T22:06:18.886Z,15.7
2018-01-13T22:08:19.651Z,10.6
2018-01-13T22:10:19.041Z,10.1
2018-01-13T22:12:18.772Z,11.1
2018-01-13T22:14:19.532Z,7.7
2018-01-13T22:16:19.128Z,11.6
2018-01-13T22:18:18.945Z,13.3
2018-01-13T22:20:18.746Z,11.6
2018-01-13T22:22:19.478Z,9.9
2018-01-13T22:24:19.225Z,16.6
2018-01-13T22:26:18.751Z,9.2
2018-01-13T22:28:19.474Z,14.2
2018-01-13T22:30:19.245Z,16.9
2018-01-13T22:32:18.978Z,13.4
2018-01-13T22:34:18.732Z,22.5
2018-01-13T22:36:18.927Z,13.2
2018-01-13T22:38:19.638Z,12.4
2018-01-13T22:40:18.838Z,15.2
2018-01-13T22:42:19.582Z,10.6
2018-01-13T22:44:19.319Z,20.7
2018-01-13T22:46:19.528Z,10.2
2018-01-13T22:48:19.285Z,11.2
2018-01-13T22:50:19.057Z,14.5
2018-01-13T22:52:18.693Z,13
2018-01-13T22:54:19.443Z,9.3
2018-01-13T22:56:19.306Z,9.6
2018-01-13T22:58:19.013Z,9.4
2018-01-13T23:00:18.752Z,12.2
2018-01-13T23:02:19.485Z,9.5
2018-01-13T23:04:19.229Z,12.2
2018-01-13T23:06:19.276Z,16.6
2018-01-13T23:08:19.013Z,12.4
2018-01-13T23:10:19.216Z,12.1
2018-01-13T23:12:18.810Z,12
2018-01-13T23:14:19.551Z,14.3
2018-01-13T23:16:19.089Z,10.5
2018-01-13T23:18:18.905Z,12
2018-01-13T23:20:19.686Z,12.8
2018-01-13T23:22:18.707Z,16.2
2018-01-13T23:24:19.412Z,18.7
2018-01-13T23:26:19.596Z,10.1
2018-01-13T23:28:19.356Z,9.8
2018-01-13T23:30:19.125Z,14.3
2018-01-13T23:32:19.668Z,12
2018-01-13T23:34:19.418Z,11
2018-01-13T23:36:18.970Z,20
2018-01-13T23:38:18.702Z,9.2
2018-01-13T23:40:18.933Z,13.8
2018-01-13T23:42:18.683Z,12.2
2018-01-13T23:44:19.445Z,16
2018-01-13T23:46:18.832Z,13.5
2018-01-13T23:48:19.596Z,11.6
2018-01-13T23:50:19.397Z,14.8
2018-01-13T23:52:19.113Z,16
2018-01-13T23:54:18.864Z,11.1
2018-01-13T23:56:19.460Z,17.1
2018-01-13T23:58:19.207Z,15.5
